Hurtsboro, Alabama
Current Conditions -  °F | °C
As of 3:35 AM on Saturday 20 Dec 2014 (Local Time) from KAUO Reporting Station
Overcast Overcast  
Wind Chill: 38°   Ceiling: 3000
Heat Index: 41°   Visibility: 10mi
Dew Point: 37°   Wind: 5mph
Humidity: 87%   Direction: 50°NE
Pressure: 30.13"   Gusts: NA
Location:  32.24°N, 85.42°W
Report Text: KAUO 200935Z AUTO 05004KT 10SM BKN030 BKN049 OVC075 05/03 A3013 RMK AO1 P0001
Loading
Personal Weather Stations






























Interactive Weather Map New forecast layout! Learn more

10-Day Weather Forecast

Advertisements
Track Severe Weather on mobile